Time;durP1;ratioP1;P1;durP2;ratioP2;P2;SDS_P1;SDS_P2;PMS_P1;PMS_P2;Temp;Humidity;BMP_temperature;BMP_pressure;BME280_temperature;BME280_humidity;BME280_pressure;Samples;Min_cycle;Max_cycle;Signal;HPM_P1;HPM_P2
2020/02/20 00:00:40;;;;;;;3.55;1.75;;;;;;;1.07;69.86328;95939.73;;;;
2020/02/20 00:01:41;;;;;;;3.55;1.75;;;;;;;1.07;69.86328;95939.73;;;;
2020/02/20 00:07:55;;;;;;;3.55;1.75;;;;;;;1.07;69.86328;95939.73;;;;
2020/02/20 00:09:01;;;;;;;3.55;1.75;;;;;;;1.07;69.86328;95939.73;;;;
2020/02/20 00:19:47;;;;;;;4.3;1.7;;;;;;;0.79;70.00586;95938.81;;;;
2020/02/20 00:20:49;;;;;;;4.3;1.7;;;;;;;0.79;70.00586;95938.81;;;;
2020/02/20 00:21:49;;;;;;;2.8;1.7;;;;;;;0.44;70.29492;95936.25;;;;
2020/02/20 00:22:50;;;;;;;2.8;1.7;;;;;;;0.44;70.29492;95936.25;;;;
2020/02/20 00:23:50;;;;;;;2.8;1.7;;;;;;;0.44;70.29492;95936.25;;;;
2020/02/20 00:24:51;;;;;;;2.8;1.7;;;;;;;0.44;70.29492;95936.25;;;;
2020/02/20 00:25:51;;;;;;;2.8;1.7;;;;;;;0.44;70.29492;95936.25;;;;
2020/02/20 00:26:51;;;;;;;2.8;1.7;;;;;;;0.44;70.29492;95936.25;;;;
2020/02/20 00:27:52;;;;;;;2.8;1.7;;;;;;;0.44;70.29492;95936.25;;;;
2020/02/20 00:28:53;;;;;;;2.8;1.7;;;;;;;0.44;70.29492;95936.25;;;;
2020/02/20 00:29:53;;;;;;;2.8;1.7;;;;;;;0.44;70.29492;95936.25;;;;
2020/02/20 00:30:53;;;;;;;2.8;1.7;;;;;;;0.44;70.29492;95936.25;;;;
2020/02/20 00:31:54;;;;;;;2.8;1.7;;;;;;;0.44;70.29492;95936.25;;;;
2020/02/20 00:32:54;;;;;;;3.7;2.1;;;;;;;0.2;70.55762;95939.65;;;;
2020/02/20 00:33:55;;;;;;;3.7;2.1;;;;;;;0.2;70.55762;95939.65;;;;
2020/02/20 00:34:55;;;;;;;3.7;2.1;;;;;;;0.2;70.55762;95939.65;;;;
2020/02/20 00:35:56;;;;;;;3.7;2.1;;;;;;;0.2;70.55762;95939.65;;;;
2020/02/20 00:36:56;;;;;;;3.7;2.1;;;;;;;0.2;70.55762;95939.65;;;;
2020/02/20 00:37:56;;;;;;;3.7;2.1;;;;;;;0.2;70.55762;95939.65;;;;
2020/02/20 00:38:57;;;;;;;3.7;2.1;;;;;;;0.2;70.55762;95939.65;;;;
2020/02/20 00:39:57;;;;;;;3.7;2.1;;;;;;;0.2;70.55762;95939.65;;;;
2020/02/20 00:40:58;;;;;;;3.7;2.1;;;;;;;0.2;70.55762;95939.65;;;;
2020/02/20 00:41:58;;;;;;;3.7;2.1;;;;;;;0.2;70.55762;95939.65;;;;
2020/02/20 00:42:59;;;;;;;3.95;2.2;;;;;;;-0.06;70.78613;95940.16;;;;
2020/02/20 00:43:59;;;;;;;3.95;2.2;;;;;;;-0.06;70.78613;95940.16;;;;
2020/02/20 00:44:59;;;;;;;3.95;2.2;;;;;;;-0.06;70.78613;95940.16;;;;
2020/02/20 00:46:00;;;;;;;3.95;2.2;;;;;;;-0.06;70.78613;95940.16;;;;
2020/02/20 00:47:00;;;;;;;3.95;2.2;;;;;;;-0.06;70.78613;95940.16;;;;
2020/02/20 00:48:01;;;;;;;3.95;2.2;;;;;;;-0.06;70.78613;95940.16;;;;
2020/02/20 00:49:03;;;;;;;3.95;2.2;;;;;;;-0.06;70.78613;95940.16;;;;
2020/02/20 00:50:03;;;;;;;3.95;2.2;;;;;;;-0.06;70.78613;95940.16;;;;
2020/02/20 00:51:03;;;;;;;3.95;2.2;;;;;;;-0.06;70.78613;95940.16;;;;
2020/02/20 00:52:04;;;;;;;3.95;2.2;;;;;;;-0.06;70.78613;95940.16;;;;
2020/02/20 00:53:04;;;;;;;3.95;2.2;;;;;;;-0.06;70.78613;95940.16;;;;
2020/02/20 00:54:05;;;;;;;3.75;1.95;;;;;;;-0.21;71.20117;95937.66;;;;
2020/02/20 00:55:05;;;;;;;3.75;1.95;;;;;;;-0.21;71.20117;95937.66;;;;
2020/02/20 00:56:06;;;;;;;3.75;1.95;;;;;;;-0.21;71.20117;95937.66;;;;
2020/02/20 00:57:06;;;;;;;3.75;1.95;;;;;;;-0.21;71.20117;95937.66;;;;
2020/02/20 00:58:07;;;;;;;3.75;1.95;;;;;;;-0.21;71.20117;95937.66;;;;
2020/02/20 00:59:07;;;;;;;3.75;1.95;;;;;;;-0.21;71.20117;95937.66;;;;
2020/02/20 01:00:08;;;;;;;3.75;1.95;;;;;;;-0.21;71.20117;95937.66;;;;
2020/02/20 01:01:09;;;;;;;3.75;1.95;;;;;;;-0.21;71.20117;95937.66;;;;
2020/02/20 01:02:14;;;;;;;3.75;1.95;;;;;;;-0.21;71.20117;95937.66;;;;
2020/02/20 01:03:15;;;;;;;3.75;1.95;;;;;;;-0.21;71.20117;95937.66;;;;
2020/02/20 01:04:19;;;;;;;2.5;1.9;;;;;;;-0.35;71.47852;95927.66;;;;
2020/02/20 01:05:19;;;;;;;2.5;1.9;;;;;;;-0.35;71.47852;95927.66;;;;
2020/02/20 01:06:20;;;;;;;2.5;1.9;;;;;;;-0.35;71.47852;95927.66;;;;
2020/02/20 01:07:20;;;;;;;2.5;1.9;;;;;;;-0.35;71.47852;95927.66;;;;
2020/02/20 01:08:21;;;;;;;2.5;1.9;;;;;;;-0.35;71.47852;95927.66;;;;
2020/02/20 01:09:21;;;;;;;2.5;1.9;;;;;;;-0.35;71.47852;95927.66;;;;
2020/02/20 01:10:30;;;;;;;2.5;1.9;;;;;;;-0.35;71.47852;95927.66;;;;
2020/02/20 01:11:31;;;;;;;2.5;1.9;;;;;;;-0.35;71.47852;95927.66;;;;
2020/02/20 01:12:31;;;;;;;2.5;1.9;;;;;;;-0.35;71.47852;95927.66;;;;
2020/02/20 01:13:32;;;;;;;2.5;1.9;;;;;;;-0.35;71.47852;95927.66;;;;
2020/02/20 01:14:33;;;;;;;2.5;1.9;;;;;;;-0.35;71.47852;95927.66;;;;
2020/02/20 01:15:33;;;;;;;4.3;1.95;;;;;;;-0.42;71.53027;95928.36;;;;
2020/02/20 01:16:35;;;;;;;4.3;1.95;;;;;;;-0.42;71.53027;95928.36;;;;
2020/02/20 01:17:35;;;;;;;4.3;1.95;;;;;;;-0.42;71.53027;95928.36;;;;
2020/02/20 01:18:36;;;;;;;4.3;1.95;;;;;;;-0.42;71.53027;95928.36;;;;
2020/02/20 01:19:36;;;;;;;4.3;1.95;;;;;;;-0.42;71.53027;95928.36;;;;
2020/02/20 01:20:37;;;;;;;4.3;1.95;;;;;;;-0.42;71.53027;95928.36;;;;
2020/02/20 01:21:37;;;;;;;4.3;1.95;;;;;;;-0.42;71.53027;95928.36;;;;
2020/02/20 01:22:40;;;;;;;4.3;1.95;;;;;;;-0.42;71.53027;95928.36;;;;
2020/02/20 01:23:41;;;;;;;4.3;1.95;;;;;;;-0.42;71.53027;95928.36;;;;
2020/02/20 01:24:41;;;;;;;4.3;1.95;;;;;;;-0.42;71.53027;95928.36;;;;
2020/02/20 01:25:42;;;;;;;4.149999;1.85;;;;;;;-0.53;71.86719;95917.5;;;;
2020/02/20 01:26:44;;;;;;;4.149999;1.85;;;;;;;-0.53;71.86719;95917.5;;;;
2020/02/20 01:27:44;;;;;;;4.149999;1.85;;;;;;;-0.53;71.86719;95917.5;;;;
2020/02/20 01:28:45;;;;;;;4.149999;1.85;;;;;;;-0.53;71.86719;95917.5;;;;
2020/02/20 01:29:45;;;;;;;4.149999;1.85;;;;;;;-0.53;71.86719;95917.5;;;;
2020/02/20 01:30:45;;;;;;;4.149999;1.85;;;;;;;-0.53;71.86719;95917.5;;;;
2020/02/20 01:31:48;;;;;;;4.149999;1.85;;;;;;;-0.53;71.86719;95917.5;;;;
2020/02/20 01:32:49;;;;;;;4.149999;1.85;;;;;;;-0.53;71.86719;95917.5;;;;
2020/02/20 01:33:50;;;;;;;4.149999;1.85;;;;;;;-0.53;71.86719;95917.5;;;;
2020/02/20 01:34:51;;;;;;;4.149999;1.85;;;;;;;-0.53;71.86719;95917.5;;;;
2020/02/20 01:35:51;;;;;;;4.149999;1.85;;;;;;;-0.53;71.86719;95917.5;;;;
2020/02/20 01:36:52;;;;;;;4.199999;2.05;;;;;;;-0.54;71.90723;95905.63;;;;
2020/02/20 01:37:53;;;;;;;4.199999;2.05;;;;;;;-0.54;71.90723;95905.63;;;;
2020/02/20 01:38:53;;;;;;;4.199999;2.05;;;;;;;-0.54;71.90723;95905.63;;;;
2020/02/20 01:39:53;;;;;;;4.199999;2.05;;;;;;;-0.54;71.90723;95905.63;;;;
2020/02/20 01:40:54;;;;;;;4.199999;2.05;;;;;;;-0.54;71.90723;95905.63;;;;
2020/02/20 01:41:54;;;;;;;4.199999;2.05;;;;;;;-0.54;71.90723;95905.63;;;;
2020/02/20 01:42:55;;;;;;;4.199999;2.05;;;;;;;-0.54;71.90723;95905.63;;;;
2020/02/20 01:43:55;;;;;;;4.199999;2.05;;;;;;;-0.54;71.90723;95905.63;;;;
2020/02/20 01:44:56;;;;;;;4.199999;2.05;;;;;;;-0.54;71.90723;95905.63;;;;
2020/02/20 01:45:56;;;;;;;4.199999;2.05;;;;;;;-0.54;71.90723;95905.63;;;;
2020/02/20 01:46:57;;;;;;;5.15;2;;;;;;;-0.65;72.35938;95901.88;;;;
2020/02/20 01:47:57;;;;;;;5.15;2;;;;;;;-0.65;72.35938;95901.88;;;;
2020/02/20 01:48:58;;;;;;;5.15;2;;;;;;;-0.65;72.35938;95901.88;;;;
2020/02/20 01:49:58;;;;;;;5.15;2;;;;;;;-0.65;72.35938;95901.88;;;;
2020/02/20 01:50:59;;;;;;;5.15;2;;;;;;;-0.65;72.35938;95901.88;;;;
2020/02/20 01:51:59;;;;;;;5.15;2;;;;;;;-0.65;72.35938;95901.88;;;;
2020/02/20 01:53:00;;;;;;;5.15;2;;;;;;;-0.65;72.35938;95901.88;;;;
2020/02/20 01:54:00;;;;;;;5.15;2;;;;;;;-0.65;72.35938;95901.88;;;;
2020/02/20 01:55:01;;;;;;;5.15;2;;;;;;;-0.65;72.35938;95901.88;;;;
2020/02/20 01:56:01;;;;;;;5.15;2;;;;;;;-0.65;72.35938;95901.88;;;;
2020/02/20 01:57:03;;;;;;;5.15;2;;;;;;;-0.65;72.35938;95901.88;;;;
2020/02/20 01:58:04;;;;;;;3.35;1.9;;;;;;;-0.53;72.27441;95887.91;;;;
2020/02/20 01:59:04;;;;;;;3.35;1.9;;;;;;;-0.53;72.27441;95887.91;;;;
2020/02/20 02:00:05;;;;;;;3.35;1.9;;;;;;;-0.53;72.27441;95887.91;;;;
2020/02/20 02:02:57;;;;;;;3.35;1.9;;;;;;;-0.53;72.27441;95887.91;;;;
2020/02/20 02:05:13;;;;;;;3.35;1.9;;;;;;;-0.53;72.27441;95887.91;;;;
2020/02/20 02:07:09;;;;;;;3.35;1.9;;;;;;;-0.53;72.27441;95887.91;;;;
2020/02/20 02:09:18;;;;;;;2.85;1.9;;;;;;;-0.31;72.26953;95878.14;;;;
2020/02/20 02:10:19;;;;;;;2.85;1.9;;;;;;;-0.31;72.26953;95878.14;;;;
2020/02/20 02:11:19;;;;;;;2.85;1.9;;;;;;;-0.31;72.26953;95878.14;;;;
2020/02/20 02:12:23;;;;;;;2.85;1.9;;;;;;;-0.31;72.26953;95878.14;;;;
2020/02/20 02:13:28;;;;;;;2.85;1.9;;;;;;;-0.31;72.26953;95878.14;;;;
2020/02/20 02:14:31;;;;;;;2.85;1.9;;;;;;;-0.31;72.26953;95878.14;;;;
2020/02/20 02:15:34;;;;;;;2.85;1.9;;;;;;;-0.31;72.26953;95878.14;;;;
2020/02/20 02:16:41;;;;;;;2.85;1.9;;;;;;;-0.31;72.26953;95878.14;;;;
2020/02/20 02:17:49;;;;;;;2.85;1.9;;;;;;;-0.31;72.26953;95878.14;;;;
2020/02/20 02:18:53;;;;;;;3.3;1.7;;;;;;;0.04;72.29688;95868.31;;;;
2020/02/20 02:19:58;;;;;;;3.3;1.7;;;;;;;0.04;72.29688;95868.31;;;;
2020/02/20 02:21:07;;;;;;;3.3;1.7;;;;;;;0.04;72.29688;95868.31;;;;
2020/02/20 02:22:09;;;;;;;3.3;1.7;;;;;;;0.04;72.29688;95868.31;;;;
2020/02/20 02:23:12;;;;;;;3.3;1.7;;;;;;;0.04;72.29688;95868.31;;;;
2020/02/20 02:24:15;;;;;;;3.3;1.7;;;;;;;0.04;72.29688;95868.31;;;;
2020/02/20 02:25:15;;;;;;;3.3;1.7;;;;;;;0.04;72.29688;95868.31;;;;
2020/02/20 02:26:21;;;;;;;3.3;1.7;;;;;;;0.04;72.29688;95868.31;;;;
2020/02/20 02:27:21;;;;;;;3.3;1.7;;;;;;;0.04;72.29688;95868.31;;;;
2020/02/20 02:28:22;;;;;;;3.3;1.7;;;;;;;0.04;72.29688;95868.31;;;;
2020/02/20 02:29:22;;;;;;;4.299999;1.95;;;;;;;0.33;72.36719;95844.47;;;;
2020/02/20 02:30:23;;;;;;;4.299999;1.95;;;;;;;0.33;72.36719;95844.47;;;;
2020/02/20 02:31:25;;;;;;;4.299999;1.95;;;;;;;0.33;72.36719;95844.47;;;;
2020/02/20 02:32:26;;;;;;;4.299999;1.95;;;;;;;0.33;72.36719;95844.47;;;;
2020/02/20 02:33:28;;;;;;;4.299999;1.95;;;;;;;0.33;72.36719;95844.47;;;;
2020/02/20 02:34:33;;;;;;;4.299999;1.95;;;;;;;0.33;72.36719;95844.47;;;;
2020/02/20 02:35:39;;;;;;;4.299999;1.95;;;;;;;0.33;72.36719;95844.47;;;;
2020/02/20 02:36:51;;;;;;;4.299999;1.95;;;;;;;0.33;72.36719;95844.47;;;;
2020/02/20 02:37:51;;;;;;;4.299999;1.95;;;;;;;0.33;72.36719;95844.47;;;;
2020/02/20 02:38:52;;;;;;;4.299999;1.95;;;;;;;0.33;72.36719;95844.47;;;;
2020/02/20 02:39:52;;;;;;;2.9;1.85;;;;;;;0.66;72.45313;95837.87;;;;
2020/02/20 02:40:53;;;;;;;2.9;1.85;;;;;;;0.66;72.45313;95837.87;;;;
2020/02/20 02:41:54;;;;;;;2.9;1.85;;;;;;;0.66;72.45313;95837.87;;;;
2020/02/20 02:42:55;;;;;;;2.9;1.85;;;;;;;0.66;72.45313;95837.87;;;;
2020/02/20 02:43:56;;;;;;;2.9;1.85;;;;;;;0.66;72.45313;95837.87;;;;
2020/02/20 02:44:56;;;;;;;2.9;1.85;;;;;;;0.66;72.45313;95837.87;;;;
2020/02/20 02:45:57;;;;;;;2.9;1.85;;;;;;;0.66;72.45313;95837.87;;;;
2020/02/20 02:46:57;;;;;;;2.9;1.85;;;;;;;0.66;72.45313;95837.87;;;;
2020/02/20 02:47:58;;;;;;;2.9;1.85;;;;;;;0.66;72.45313;95837.87;;;;
2020/02/20 02:48:58;;;;;;;2.9;1.85;;;;;;;0.66;72.45313;95837.87;;;;
2020/02/20 02:49:58;;;;;;;2.9;1.85;;;;;;;0.66;72.45313;95837.87;;;;
2020/02/20 02:50:59;;;;;;;3.75;2.1;;;;;;;0.91;72.54883;95830.29;;;;
2020/02/20 02:52:01;;;;;;;3.75;2.1;;;;;;;0.91;72.54883;95830.29;;;;
2020/02/20 02:53:01;;;;;;;3.75;2.1;;;;;;;0.91;72.54883;95830.29;;;;
2020/02/20 02:54:02;;;;;;;3.75;2.1;;;;;;;0.91;72.54883;95830.29;;;;
2020/02/20 02:55:02;;;;;;;3.75;2.1;;;;;;;0.91;72.54883;95830.29;;;;
2020/02/20 02:56:04;;;;;;;3.75;2.1;;;;;;;0.91;72.54883;95830.29;;;;
2020/02/20 02:57:04;;;;;;;3.75;2.1;;;;;;;0.91;72.54883;95830.29;;;;
2020/02/20 02:58:05;;;;;;;3.75;2.1;;;;;;;0.91;72.54883;95830.29;;;;
2020/02/20 02:59:05;;;;;;;3.75;2.1;;;;;;;0.91;72.54883;95830.29;;;;
2020/02/20 03:00:06;;;;;;;3.75;2.1;;;;;;;0.91;72.54883;95830.29;;;;
2020/02/20 03:01:13;;;;;;;4.55;1.65;;;;;;;1.28;72.64453;95829.32;;;;
2020/02/20 03:02:14;;;;;;;4.55;1.65;;;;;;;1.28;72.64453;95829.32;;;;
2020/02/20 03:03:14;;;;;;;4.55;1.65;;;;;;;1.28;72.64453;95829.32;;;;
2020/02/20 03:04:15;;;;;;;4.55;1.65;;;;;;;1.28;72.64453;95829.32;;;;
2020/02/20 03:05:15;;;;;;;4.55;1.65;;;;;;;1.28;72.64453;95829.32;;;;
2020/02/20 03:06:16;;;;;;;4.55;1.65;;;;;;;1.28;72.64453;95829.32;;;;
2020/02/20 03:07:16;;;;;;;4.55;1.65;;;;;;;1.28;72.64453;95829.32;;;;
2020/02/20 03:08:17;;;;;;;4.55;1.65;;;;;;;1.28;72.64453;95829.32;;;;
2020/02/20 03:09:17;;;;;;;4.55;1.65;;;;;;;1.28;72.64453;95829.32;;;;
2020/02/20 03:15:29;;;;;;;3.25;1.6;;;;;;;1.5;72.54492;95816.69;;;;
2020/02/20 03:16:31;;;;;;;3.25;1.6;;;;;;;1.5;72.54492;95816.69;;;;
2020/02/20 03:17:31;;;;;;;3.25;1.6;;;;;;;1.5;72.54492;95816.69;;;;
2020/02/20 03:18:37;;;;;;;3.25;1.6;;;;;;;1.5;72.54492;95816.69;;;;
2020/02/20 03:19:38;;;;;;;3.25;1.6;;;;;;;1.5;72.54492;95816.69;;;;
2020/02/20 03:20:39;;;;;;;3.25;1.6;;;;;;;1.5;72.54492;95816.69;;;;
2020/02/20 03:21:40;;;;;;;3.25;1.6;;;;;;;1.5;72.54492;95816.69;;;;
2020/02/20 03:22:41;;;;;;;3;2.1;;;;;;;1.68;72.40723;95810.68;;;;
2020/02/20 03:23:41;;;;;;;3;2.1;;;;;;;1.68;72.40723;95810.68;;;;
2020/02/20 03:24:42;;;;;;;3;2.1;;;;;;;1.68;72.40723;95810.68;;;;
2020/02/20 03:25:42;;;;;;;3;2.1;;;;;;;1.68;72.40723;95810.68;;;;
2020/02/20 03:26:43;;;;;;;3;2.1;;;;;;;1.68;72.40723;95810.68;;;;
2020/02/20 03:27:43;;;;;;;3;2.1;;;;;;;1.68;72.40723;95810.68;;;;
2020/02/20 03:28:44;;;;;;;3;2.1;;;;;;;1.68;72.40723;95810.68;;;;
2020/02/20 03:29:44;;;;;;;3;2.1;;;;;;;1.68;72.40723;95810.68;;;;
2020/02/20 03:30:45;;;;;;;3;2.1;;;;;;;1.68;72.40723;95810.68;;;;
2020/02/20 03:31:45;;;;;;;3;2.1;;;;;;;1.68;72.40723;95810.68;;;;
2020/02/20 03:32:46;;;;;;;4.5;1.6;;;;;;;1.76;72.58789;95812.5;;;;
2020/02/20 03:33:46;;;;;;;4.5;1.6;;;;;;;1.76;72.58789;95812.5;;;;
2020/02/20 03:34:46;;;;;;;4.5;1.6;;;;;;;1.76;72.58789;95812.5;;;;
2020/02/20 03:35:47;;;;;;;4.5;1.6;;;;;;;1.76;72.58789;95812.5;;;;
2020/02/20 03:36:47;;;;;;;4.5;1.6;;;;;;;1.76;72.58789;95812.5;;;;
2020/02/20 03:37:48;;;;;;;4.5;1.6;;;;;;;1.76;72.58789;95812.5;;;;
2020/02/20 03:38:48;;;;;;;4.5;1.6;;;;;;;1.76;72.58789;95812.5;;;;
2020/02/20 03:39:49;;;;;;;4.5;1.6;;;;;;;1.76;72.58789;95812.5;;;;
2020/02/20 03:40:49;;;;;;;4.5;1.6;;;;;;;1.76;72.58789;95812.5;;;;
2020/02/20 03:41:52;;;;;;;4.5;1.6;;;;;;;1.76;72.58789;95812.5;;;;
2020/02/20 03:42:54;;;;;;;4.5;1.6;;;;;;;1.76;72.58789;95812.5;;;;
2020/02/20 03:43:58;;;;;;;3.65;1.8;;;;;;;1.89;72.52637;95805.22;;;;
2020/02/20 03:45:03;;;;;;;3.65;1.8;;;;;;;1.89;72.52637;95805.22;;;;
2020/02/20 03:46:04;;;;;;;3.65;1.8;;;;;;;1.89;72.52637;95805.22;;;;
2020/02/20 03:47:06;;;;;;;3.65;1.8;;;;;;;1.89;72.52637;95805.22;;;;
2020/02/20 03:48:07;;;;;;;3.65;1.8;;;;;;;1.89;72.52637;95805.22;;;;
2020/02/20 03:49:09;;;;;;;3.65;1.8;;;;;;;1.89;72.52637;95805.22;;;;
2020/02/20 03:50:10;;;;;;;3.65;1.8;;;;;;;1.89;72.52637;95805.22;;;;
2020/02/20 03:51:10;;;;;;;3.65;1.8;;;;;;;1.89;72.52637;95805.22;;;;
2020/02/20 03:52:11;;;;;;;3.65;1.8;;;;;;;1.89;72.52637;95805.22;;;;
2020/02/20 03:53:13;;;;;;;3.65;1.8;;;;;;;1.89;72.52637;95805.22;;;;
2020/02/20 03:54:17;;;;;;;3.8;1.9;;;;;;;1.91;72.47754;95804.13;;;;
2020/02/20 03:55:19;;;;;;;3.8;1.9;;;;;;;1.91;72.47754;95804.13;;;;
2020/02/20 03:56:20;;;;;;;3.8;1.9;;;;;;;1.91;72.47754;95804.13;;;;
2020/02/20 03:57:22;;;;;;;3.8;1.9;;;;;;;1.91;72.47754;95804.13;;;;
2020/02/20 03:58:22;;;;;;;3.8;1.9;;;;;;;1.91;72.47754;95804.13;;;;
2020/02/20 03:59:24;;;;;;;3.8;1.9;;;;;;;1.91;72.47754;95804.13;;;;
2020/02/20 04:00:25;;;;;;;3.8;1.9;;;;;;;1.91;72.47754;95804.13;;;;
2020/02/20 04:01:26;;;;;;;3.8;1.9;;;;;;;1.91;72.47754;95804.13;;;;
2020/02/20 04:02:27;;;;;;;3.8;1.9;;;;;;;1.91;72.47754;95804.13;;;;
2020/02/20 04:03:29;;;;;;;3.8;1.9;;;;;;;1.91;72.47754;95804.13;;;;
2020/02/20 04:04:30;;;;;;;3.8;1.9;;;;;;;1.91;72.47754;95804.13;;;;
2020/02/20 04:05:30;;;;;;;6.15;2.15;;;;;;;1.99;72.5127;95797.89;;;;
2020/02/20 04:06:31;;;;;;;6.15;2.15;;;;;;;1.99;72.5127;95797.89;;;;
2020/02/20 04:07:32;;;;;;;6.15;2.15;;;;;;;1.99;72.5127;95797.89;;;;
2020/02/20 04:08:33;;;;;;;6.15;2.15;;;;;;;1.99;72.5127;95797.89;;;;
2020/02/20 04:09:35;;;;;;;6.15;2.15;;;;;;;1.99;72.5127;95797.89;;;;
2020/02/20 04:10:36;;;;;;;6.15;2.15;;;;;;;1.99;72.5127;95797.89;;;;
2020/02/20 04:11:37;;;;;;;6.15;2.15;;;;;;;1.99;72.5127;95797.89;;;;
2020/02/20 04:12:37;;;;;;;6.15;2.15;;;;;;;1.99;72.5127;95797.89;;;;
2020/02/20 04:13:37;;;;;;;6.15;2.15;;;;;;;1.99;72.5127;95797.89;;;;
2020/02/20 04:14:38;;;;;;;6.15;2.15;;;;;;;1.99;72.5127;95797.89;;;;
2020/02/20 04:16:43;;;;;;;4.149999;1.7;;;;;;;2.02;72.91602;95792.21;;;;
2020/02/20 04:17:44;;;;;;;4.149999;1.7;;;;;;;2.02;72.91602;95792.21;;;;
2020/02/20 04:18:44;;;;;;;4.149999;1.7;;;;;;;2.02;72.91602;95792.21;;;;
2020/02/20 04:19:45;;;;;;;4.149999;1.7;;;;;;;2.02;72.91602;95792.21;;;;
2020/02/20 04:20:45;;;;;;;4.149999;1.7;;;;;;;2.02;72.91602;95792.21;;;;
2020/02/20 04:21:46;;;;;;;4.149999;1.7;;;;;;;2.02;72.91602;95792.21;;;;
2020/02/20 04:22:46;;;;;;;4.149999;1.7;;;;;;;2.02;72.91602;95792.21;;;;
2020/02/20 04:23:47;;;;;;;4.149999;1.7;;;;;;;2.02;72.91602;95792.21;;;;
2020/02/20 04:24:47;;;;;;;4.149999;1.7;;;;;;;2.02;72.91602;95792.21;;;;
2020/02/20 04:25:48;;;;;;;4.199999;1.7;;;;;;;2.13;72.94629;95791;;;;
2020/02/20 04:26:48;;;;;;;4.199999;1.7;;;;;;;2.13;72.94629;95791;;;;
2020/02/20 04:27:49;;;;;;;4.199999;1.7;;;;;;;2.13;72.94629;95791;;;;
2020/02/20 04:28:49;;;;;;;4.199999;1.7;;;;;;;2.13;72.94629;95791;;;;
2020/02/20 04:30:05;;;;;;;4.199999;1.7;;;;;;;2.13;72.94629;95791;;;;
2020/02/20 04:31:06;;;;;;;4.199999;1.7;;;;;;;2.13;72.94629;95791;;;;
2020/02/20 04:32:08;;;;;;;4.199999;1.7;;;;;;;2.13;72.94629;95791;;;;
2020/02/20 04:33:08;;;;;;;4.199999;1.7;;;;;;;2.13;72.94629;95791;;;;
2020/02/20 04:34:10;;;;;;;4.199999;1.7;;;;;;;2.13;72.94629;95791;;;;
2020/02/20 04:35:10;;;;;;;4.199999;1.7;;;;;;;2.13;72.94629;95791;;;;
2020/02/20 04:36:11;;;;;;;4.199999;1.7;;;;;;;2.13;72.94629;95791;;;;
2020/02/20 04:37:11;;;;;;;2.8;1.5;;;;;;;2.13;72.77832;95782.51;;;;
2020/02/20 04:38:12;;;;;;;2.8;1.5;;;;;;;2.13;72.77832;95782.51;;;;
2020/02/20 04:39:12;;;;;;;2.8;1.5;;;;;;;2.13;72.77832;95782.51;;;;
2020/02/20 04:40:13;;;;;;;2.8;1.5;;;;;;;2.13;72.77832;95782.51;;;;
2020/02/20 04:41:13;;;;;;;2.8;1.5;;;;;;;2.13;72.77832;95782.51;;;;
2020/02/20 04:42:13;;;;;;;2.8;1.5;;;;;;;2.13;72.77832;95782.51;;;;
2020/02/20 04:43:14;;;;;;;2.8;1.5;;;;;;;2.13;72.77832;95782.51;;;;
2020/02/20 04:44:15;;;;;;;2.8;1.5;;;;;;;2.13;72.77832;95782.51;;;;
2020/02/20 04:45:15;;;;;;;2.8;1.5;;;;;;;2.13;72.77832;95782.51;;;;
2020/02/20 04:46:16;;;;;;;2.8;1.5;;;;;;;2.13;72.77832;95782.51;;;;
2020/02/20 04:47:16;;;;;;;5.5;1.6;;;;;;;2.2;72.63379;95775.5;;;;
2020/02/20 04:48:17;;;;;;;5.5;1.6;;;;;;;2.2;72.63379;95775.5;;;;
2020/02/20 04:49:17;;;;;;;5.5;1.6;;;;;;;2.2;72.63379;95775.5;;;;
2020/02/20 04:50:17;;;;;;;5.5;1.6;;;;;;;2.2;72.63379;95775.5;;;;
2020/02/20 04:51:18;;;;;;;5.5;1.6;;;;;;;2.2;72.63379;95775.5;;;;
2020/02/20 04:52:19;;;;;;;5.5;1.6;;;;;;;2.2;72.63379;95775.5;;;;
2020/02/20 04:53:19;;;;;;;5.5;1.6;;;;;;;2.2;72.63379;95775.5;;;;
2020/02/20 04:54:20;;;;;;;5.5;1.6;;;;;;;2.2;72.63379;95775.5;;;;
2020/02/20 04:55:21;;;;;;;5.5;1.6;;;;;;;2.2;72.63379;95775.5;;;;
2020/02/20 04:56:21;;;;;;;5.5;1.6;;;;;;;2.2;72.63379;95775.5;;;;
2020/02/20 04:57:21;;;;;;;5.5;1.6;;;;;;;2.2;72.63379;95775.5;;;;
2020/02/20 04:58:22;;;;;;;2.65;1.35;;;;;;;2.22;72.84473;95777.56;;;;
2020/02/20 04:59:22;;;;;;;2.65;1.35;;;;;;;2.22;72.84473;95777.56;;;;
2020/02/20 05:00:23;;;;;;;2.65;1.35;;;;;;;2.22;72.84473;95777.56;;;;
2020/02/20 05:01:23;;;;;;;2.65;1.35;;;;;;;2.22;72.84473;95777.56;;;;
2020/02/20 05:02:24;;;;;;;2.65;1.35;;;;;;;2.22;72.84473;95777.56;;;;
2020/02/20 05:03:24;;;;;;;2.65;1.35;;;;;;;2.22;72.84473;95777.56;;;;
2020/02/20 05:04:25;;;;;;;2.65;1.35;;;;;;;2.22;72.84473;95777.56;;;;
2020/02/20 05:05:25;;;;;;;2.65;1.35;;;;;;;2.22;72.84473;95777.56;;;;
2020/02/20 05:06:26;;;;;;;2.65;1.35;;;;;;;2.22;72.84473;95777.56;;;;
2020/02/20 05:07:26;;;;;;;2.65;1.35;;;;;;;2.22;72.84473;95777.56;;;;
2020/02/20 05:08:26;;;;;;;3.85;1.4;;;;;;;2.43;72.94531;95778.63;;;;
2020/02/20 05:09:27;;;;;;;3.85;1.4;;;;;;;2.43;72.94531;95778.63;;;;
2020/02/20 05:10:27;;;;;;;3.85;1.4;;;;;;;2.43;72.94531;95778.63;;;;
2020/02/20 05:11:28;;;;;;;3.85;1.4;;;;;;;2.43;72.94531;95778.63;;;;
2020/02/20 05:13:06;;;;;;;3.85;1.4;;;;;;;2.43;72.94531;95778.63;;;;
2020/02/20 05:14:45;;;;;;;3.85;1.4;;;;;;;2.43;72.94531;95778.63;;;;
2020/02/20 05:15:59;;;;;;;3.85;1.4;;;;;;;2.43;72.94531;95778.63;;;;
2020/02/20 05:17:02;;;;;;;3.85;1.4;;;;;;;2.43;72.94531;95778.63;;;;
2020/02/20 05:18:04;;;;;;;3.85;1.4;;;;;;;2.43;72.94531;95778.63;;;;
2020/02/20 05:19:04;;;;;;;4.05;1.85;;;;;;;2.6;72.46973;95771.31;;;;
2020/02/20 05:20:05;;;;;;;4.05;1.85;;;;;;;2.6;72.46973;95771.31;;;;
2020/02/20 05:21:05;;;;;;;4.05;1.85;;;;;;;2.6;72.46973;95771.31;;;;
2020/02/20 05:22:06;;;;;;;4.05;1.85;;;;;;;2.6;72.46973;95771.31;;;;
2020/02/20 05:23:06;;;;;;;4.05;1.85;;;;;;;2.6;72.46973;95771.31;;;;
2020/02/20 05:24:07;;;;;;;4.05;1.85;;;;;;;2.6;72.46973;95771.31;;;;
2020/02/20 05:25:07;;;;;;;4.05;1.85;;;;;;;2.6;72.46973;95771.31;;;;
2020/02/20 05:26:08;;;;;;;4.05;1.85;;;;;;;2.6;72.46973;95771.31;;;;
2020/02/20 05:27:09;;;;;;;4.05;1.85;;;;;;;2.6;72.46973;95771.31;;;;
2020/02/20 05:28:09;;;;;;;4.05;1.85;;;;;;;2.6;72.46973;95771.31;;;;
2020/02/20 05:29:10;;;;;;;4.05;1.85;;;;;;;2.6;72.46973;95771.31;;;;
2020/02/20 05:30:10;;;;;;;4.4;1.9;;;;;;;2.76;72.30566;95764.2;;;;
2020/02/20 05:31:11;;;;;;;4.4;1.9;;;;;;;2.76;72.30566;95764.2;;;;
2020/02/20 05:32:11;;;;;;;4.4;1.9;;;;;;;2.76;72.30566;95764.2;;;;
2020/02/20 05:33:11;;;;;;;4.4;1.9;;;;;;;2.76;72.30566;95764.2;;;;
2020/02/20 05:34:12;;;;;;;4.4;1.9;;;;;;;2.76;72.30566;95764.2;;;;
2020/02/20 05:35:12;;;;;;;4.4;1.9;;;;;;;2.76;72.30566;95764.2;;;;
2020/02/20 05:36:13;;;;;;;4.4;1.9;;;;;;;2.76;72.30566;95764.2;;;;
2020/02/20 05:37:13;;;;;;;4.4;1.9;;;;;;;2.76;72.30566;95764.2;;;;
2020/02/20 05:38:14;;;;;;;4.4;1.9;;;;;;;2.76;72.30566;95764.2;;;;
2020/02/20 05:39:14;;;;;;;4.4;1.9;;;;;;;2.76;72.30566;95764.2;;;;
2020/02/20 05:40:15;;;;;;;4.65;1.6;;;;;;;2.77;72.20215;95768.55;;;;
2020/02/20 05:41:15;;;;;;;4.65;1.6;;;;;;;2.77;72.20215;95768.55;;;;
2020/02/20 05:42:16;;;;;;;4.65;1.6;;;;;;;2.77;72.20215;95768.55;;;;
2020/02/20 05:43:16;;;;;;;4.65;1.6;;;;;;;2.77;72.20215;95768.55;;;;
2020/02/20 05:44:16;;;;;;;4.65;1.6;;;;;;;2.77;72.20215;95768.55;;;;
2020/02/20 05:45:17;;;;;;;4.65;1.6;;;;;;;2.77;72.20215;95768.55;;;;
2020/02/20 05:46:17;;;;;;;4.65;1.6;;;;;;;2.77;72.20215;95768.55;;;;
2020/02/20 05:47:18;;;;;;;4.65;1.6;;;;;;;2.77;72.20215;95768.55;;;;
2020/02/20 05:48:18;;;;;;;4.65;1.6;;;;;;;2.77;72.20215;95768.55;;;;
2020/02/20 05:49:19;;;;;;;4.65;1.6;;;;;;;2.77;72.20215;95768.55;;;;
2020/02/20 05:50:19;;;;;;;4.65;1.6;;;;;;;2.77;72.20215;95768.55;;;;
2020/02/20 05:51:20;;;;;;;4.35;1.65;;;;;;;2.86;72.1123;95754.16;;;;
2020/02/20 05:52:20;;;;;;;4.35;1.65;;;;;;;2.86;72.1123;95754.16;;;;
2020/02/20 05:53:21;;;;;;;4.35;1.65;;;;;;;2.86;72.1123;95754.16;;;;
2020/02/20 05:54:21;;;;;;;4.35;1.65;;;;;;;2.86;72.1123;95754.16;;;;
2020/02/20 05:55:21;;;;;;;4.35;1.65;;;;;;;2.86;72.1123;95754.16;;;;
2020/02/20 05:56:22;;;;;;;4.35;1.65;;;;;;;2.86;72.1123;95754.16;;;;
2020/02/20 05:57:22;;;;;;;4.35;1.65;;;;;;;2.86;72.1123;95754.16;;;;
2020/02/20 05:58:23;;;;;;;4.35;1.65;;;;;;;2.86;72.1123;95754.16;;;;
2020/02/20 05:59:23;;;;;;;4.35;1.65;;;;;;;2.86;72.1123;95754.16;;;;
2020/02/20 06:00:24;;;;;;;4.35;1.65;;;;;;;2.86;72.1123;95754.16;;;;
2020/02/20 06:01:24;;;;;;;6.4;2.5;;;;;;;2.84;71.97266;95762.73;;;;
2020/02/20 06:02:25;;;;;;;6.4;2.5;;;;;;;2.84;71.97266;95762.73;;;;
2020/02/20 06:03:25;;;;;;;6.4;2.5;;;;;;;2.84;71.97266;95762.73;;;;
2020/02/20 06:04:26;;;;;;;6.4;2.5;;;;;;;2.84;71.97266;95762.73;;;;
2020/02/20 06:05:26;;;;;;;6.4;2.5;;;;;;;2.84;71.97266;95762.73;;;;
2020/02/20 06:06:26;;;;;;;6.4;2.5;;;;;;;2.84;71.97266;95762.73;;;;
2020/02/20 06:07:28;;;;;;;6.4;2.5;;;;;;;2.84;71.97266;95762.73;;;;
2020/02/20 06:08:28;;;;;;;6.4;2.5;;;;;;;2.84;71.97266;95762.73;;;;
2020/02/20 06:09:28;;;;;;;6.4;2.5;;;;;;;2.84;71.97266;95762.73;;;;
2020/02/20 06:10:29;;;;;;;6.4;2.5;;;;;;;2.84;71.97266;95762.73;;;;
2020/02/20 06:11:29;;;;;;;6.4;2.5;;;;;;;2.84;71.97266;95762.73;;;;
2020/02/20 06:12:30;;;;;;;5.65;2.9;;;;;;;2.89;71.95996;95753.8;;;;
2020/02/20 06:13:30;;;;;;;5.65;2.9;;;;;;;2.89;71.95996;95753.8;;;;
2020/02/20 06:14:31;;;;;;;5.65;2.9;;;;;;;2.89;71.95996;95753.8;;;;
2020/02/20 06:15:31;;;;;;;5.65;2.9;;;;;;;2.89;71.95996;95753.8;;;;
2020/02/20 06:16:32;;;;;;;5.65;2.9;;;;;;;2.89;71.95996;95753.8;;;;
2020/02/20 06:17:32;;;;;;;5.65;2.9;;;;;;;2.89;71.95996;95753.8;;;;
2020/02/20 06:18:33;;;;;;;5.65;2.9;;;;;;;2.89;71.95996;95753.8;;;;
2020/02/20 06:19:33;;;;;;;5.65;2.9;;;;;;;2.89;71.95996;95753.8;;;;
2020/02/20 06:20:34;;;;;;;5.65;2.9;;;;;;;2.89;71.95996;95753.8;;;;
2020/02/20 06:21:34;;;;;;;5.65;2.9;;;;;;;2.89;71.95996;95753.8;;;;